createdAt,value
2018-01-07T00:01:26.023Z,8.30
2018-01-07T00:03:53.566Z,8.30
2018-01-07T00:06:21.056Z,8.30
2018-01-07T00:08:48.567Z,8.30
2018-01-07T00:11:16.824Z,8.30
2018-01-07T00:13:45.214Z,8.30
2018-01-07T00:16:12.758Z,8.30
2018-01-07T00:18:40.276Z,8.30
2018-01-07T00:21:07.808Z,8.40
2018-01-07T00:23:35.386Z,8.40
2018-01-07T00:26:03.857Z,8.40
2018-01-07T00:28:43.917Z,8.40
2018-01-07T00:31:11.460Z,8.30
2018-01-07T00:33:38.958Z,8.40
2018-01-07T00:36:07.232Z,8.40
2018-01-07T00:38:35.508Z,8.30
2018-01-07T00:41:03.045Z,8.30
2018-01-07T00:43:30.565Z,8.30
2018-01-07T00:45:58.045Z,8.20
2018-01-07T00:48:25.517Z,8.20
2018-01-07T00:50:53.038Z,8.30
2018-01-07T00:53:21.311Z,8.20
2018-01-07T00:55:50.283Z,8.10
2018-01-07T00:58:17.749Z,8.10
2018-01-07T01:00:45.258Z,8.30
2018-01-07T01:03:12.749Z,8.30
2018-01-07T01:05:40.228Z,8.20
2018-01-07T01:08:07.682Z,8.20
2018-01-07T01:10:35.157Z,8.20
2018-01-07T01:13:02.623Z,8.10
2018-01-07T01:15:30.204Z,8.10
2018-01-07T01:17:58.456Z,8.10
2018-01-07T01:20:25.916Z,8.10
2018-01-07T01:22:53.385Z,8.10
2018-01-07T01:25:20.847Z,8.20
2018-01-07T01:27:48.318Z,8.30
2018-01-07T01:30:16.557Z,8.30
2018-01-07T01:32:44.429Z,8.20
2018-01-07T01:35:11.914Z,8.30
2018-01-07T01:37:39.401Z,8.20
2018-01-07T01:40:06.964Z,8.20
2018-01-07T01:42:34.419Z,8.30
2018-01-07T01:45:01.877Z,8.40
2018-01-07T01:47:29.353Z,8.50
2018-01-07T01:49:56.827Z,8.60
2018-01-07T01:52:25.061Z,8.40
2018-01-07T01:54:52.525Z,8.40
2018-01-07T01:57:20.032Z,8.40
2018-01-07T01:59:47.490Z,8.40
2018-01-07T02:02:14.961Z,8.50
2018-01-07T02:04:42.414Z,8.50
2018-01-07T02:07:09.877Z,8.60
2018-01-07T02:09:38.102Z,8.40
2018-01-07T02:12:05.561Z,8.40
2018-01-07T02:14:33.017Z,8.70
2018-01-07T02:17:00.483Z,8.70
2018-01-07T02:19:28.728Z,8.60
2018-01-07T02:21:56.205Z,8.50
2018-01-07T02:24:24.431Z,8.40
2018-01-07T02:26:51.886Z,8.40
2018-01-07T02:29:19.340Z,8.40
2018-01-07T02:31:46.816Z,8.50
2018-01-07T02:34:14.275Z,8.40
2018-01-07T02:36:41.779Z,8.40
2018-01-07T02:39:09.228Z,8.50
2018-01-07T02:41:36.697Z,8.40
2018-01-07T02:44:04.154Z,8.40
2018-01-07T02:46:31.639Z,8.40
2018-01-07T02:48:59.845Z,8.40
2018-01-07T02:51:27.316Z,8.40
2018-01-07T02:53:54.769Z,8.50
2018-01-07T02:56:22.256Z,8.40
2018-01-07T02:58:49.749Z,8.40
2018-01-07T03:01:18.004Z,8.40
2018-01-07T03:03:45.464Z,8.40
2018-01-07T03:06:12.942Z,8.40
2018-01-07T03:08:41.182Z,8.40
2018-01-07T03:11:08.648Z,8.40
2018-01-07T03:13:36.129Z,8.40
2018-01-07T03:16:03.589Z,8.50
2018-01-07T03:18:31.062Z,8.50
2018-01-07T03:20:58.516Z,8.40
2018-01-07T03:23:26.042Z,8.50
2018-01-07T03:25:53.499Z,8.60
2018-01-07T03:28:20.971Z,8.50
2018-01-07T03:30:48.447Z,8.30
2018-01-07T03:33:15.915Z,8.30
2018-01-07T03:35:43.364Z,8.40
2018-01-07T03:38:10.835Z,8.40
2018-01-07T03:40:38.297Z,8.50
2018-01-07T03:43:05.786Z,8.50
2018-01-07T03:45:33.261Z,8.40
2018-01-07T03:48:00.738Z,8.20
2018-01-07T03:50:28.969Z,8.50
2018-01-07T03:52:56.433Z,8.40
2018-01-07T03:55:23.892Z,8.50
2018-01-07T03:57:51.358Z,8.40
2018-01-07T04:00:18.843Z,8.40
2018-01-07T04:02:46.339Z,8.40
2018-01-07T04:05:13.815Z,8.40
2018-01-07T04:07:41.307Z,8.40
2018-01-07T04:10:08.771Z,8.40
2018-01-07T04:12:36.254Z,8.30
2018-01-07T04:15:03.714Z,8.40
2018-01-07T04:17:31.169Z,8.40
2018-01-07T04:19:58.642Z,8.30
2018-01-07T04:22:26.118Z,8.20
2018-01-07T04:24:53.578Z,8.20
2018-01-07T04:27:21.054Z,8.20
2018-01-07T04:29:49.281Z,8.20
2018-01-07T04:32:16.746Z,8.20
2018-01-07T04:34:44.258Z,8.10
2018-01-07T04:37:11.752Z,8.10
2018-01-07T04:39:39.263Z,8.10
2018-01-07T04:42:06.754Z,8.00
2018-01-07T04:44:34.985Z,8.00
2018-01-07T04:47:02.451Z,8.00
2018-01-07T04:49:40.765Z,7.90
2018-01-07T04:52:08.228Z,7.80
2018-01-07T04:54:35.814Z,7.80
2018-01-07T04:57:06.849Z,7.70
2018-01-07T04:59:34.333Z,7.70
2018-01-07T05:04:57.871Z,7.90
2018-01-07T05:07:26.706Z,7.80
2018-01-07T05:09:59.089Z,7.70
2018-01-07T05:12:28.432Z,7.70
2018-01-07T05:14:56.775Z,7.70
2018-01-07T05:17:32.816Z,7.80
2018-01-07T05:20:00.523Z,7.70
2018-01-07T05:22:28.014Z,7.70
2018-01-07T05:25:12.832Z,7.80
2018-01-07T05:27:59.901Z,7.70
2018-01-07T05:30:47.013Z,7.80
2018-01-07T05:33:16.911Z,7.70
2018-01-07T05:35:44.782Z,7.70
2018-01-07T05:38:12.244Z,7.70
2018-01-07T05:40:39.786Z,7.90
2018-01-07T05:43:07.268Z,7.90
2018-01-07T05:45:34.762Z,7.90
2018-01-07T05:48:02.239Z,7.90
2018-01-07T05:50:30.698Z,7.80
2018-01-07T05:52:59.076Z,7.80
2018-01-07T05:55:27.310Z,7.70
2018-01-07T05:57:54.927Z,7.70
2018-01-07T06:00:22.543Z,7.60
2018-01-07T06:02:50.731Z,7.70
2018-01-07T06:05:19.869Z,7.60
2018-01-07T06:07:49.124Z,7.70
2018-01-07T06:10:16.914Z,7.70
2018-01-07T06:12:46.088Z,7.70
2018-01-07T06:15:17.751Z,7.60
2018-01-07T06:17:45.230Z,7.60
2018-01-07T06:20:13.365Z,7.50
2018-01-07T06:22:40.830Z,7.60
2018-01-07T06:25:09.094Z,7.70
2018-01-07T06:45:04.542Z,7.40
2018-01-07T06:47:33.760Z,7.50
2018-01-07T06:50:02.107Z,7.50
2018-01-07T06:52:32.016Z,7.40
2018-01-07T06:55:02.937Z,7.40
2018-01-07T06:57:30.858Z,7.30
2018-01-07T06:59:58.388Z,7.40
2018-01-07T07:02:27.165Z,7.40
2018-01-07T07:04:55.658Z,7.30
2018-01-07T07:07:24.963Z,7.30
2018-01-07T07:09:53.405Z,7.30
2018-01-07T07:12:21.092Z,7.40
2018-01-07T07:15:04.464Z,7.40
2018-01-07T07:17:33.085Z,7.30
2018-01-07T07:20:01.024Z,7.30
2018-01-07T07:22:28.932Z,7.30
2018-01-07T07:24:59.975Z,7.40
2018-01-07T07:27:27.832Z,7.40
2018-01-07T07:29:55.814Z,7.40
2018-01-07T07:32:25.863Z,7.40
2018-01-07T07:34:55.355Z,7.30
2018-01-07T07:37:24.184Z,7.30
2018-01-07T07:39:52.064Z,7.40
2018-01-07T07:42:21.275Z,7.30
2018-01-07T08:10:57.246Z,7.30
2018-01-07T08:13:25.544Z,7.20
2018-01-07T08:15:54.426Z,7.10
2018-01-07T08:18:25.062Z,7.20
2018-01-07T08:20:53.562Z,7.20
2018-01-07T08:23:27.702Z,7.30
2018-01-07T08:25:56.391Z,7.30
2018-01-07T08:28:24.504Z,7.20
2018-01-07T08:30:53.148Z,7.10
2018-01-07T08:33:27.103Z,7.20
2018-01-07T08:35:58.164Z,7.10
2018-01-07T08:38:29.014Z,7.20
2018-01-07T08:40:59.053Z,7.20
2018-01-07T08:43:33.769Z,7.10
2018-01-07T08:46:06.348Z,7.20
2018-01-07T08:48:41.164Z,7.30
2018-01-07T08:51:09.531Z,7.30
2018-01-07T10:43:35.543Z,7.90
2018-01-07T10:46:13.080Z,7.90
2018-01-07T10:48:49.938Z,7.90
2018-01-07T11:00:02.456Z,8.10
2018-01-07T11:02:34.626Z,8.00
2018-01-07T11:05:07.646Z,8.10
2018-01-07T11:10:34.524Z,8.10
2018-01-07T11:13:02.210Z,8.10
2018-01-07T11:15:40.304Z,8.20
2018-01-07T11:18:08.060Z,8.30
2018-01-07T11:23:24.052Z,8.20
2018-01-07T11:25:54.234Z,8.20
2018-01-07T11:28:22.066Z,8.20
2018-01-07T11:30:49.577Z,8.30
2018-01-07T11:33:18.014Z,8.30
2018-01-07T11:35:45.587Z,8.30
2018-01-07T11:38:19.886Z,8.30
2018-01-07T12:53:10.195Z,8.00
2018-01-07T12:55:49.035Z,8.00
2018-01-07T12:58:19.924Z,8.10
2018-01-07T15:01:57.465Z,7.50
2018-01-07T15:04:37.775Z,7.50
2018-01-07T15:07:06.175Z,7.50
2018-01-07T15:09:37.974Z,7.40
2018-01-07T15:15:11.228Z,7.40
2018-01-07T15:18:16.251Z,7.30
2018-01-07T15:21:16.601Z,7.40
2018-01-07T15:23:46.630Z,7.40
2018-01-07T15:34:47.094Z,7.30
2018-01-07T16:29:32.420Z,6.90
2018-01-07T17:16:34.652Z,6.70
2018-01-07T17:36:24.753Z,6.60
2018-01-07T17:38:52.375Z,6.60
2018-01-07T17:41:20.016Z,6.60
2018-01-07T17:58:10.498Z,6.50
2018-01-07T18:00:39.844Z,6.50
2018-01-07T18:12:12.839Z,6.40
2018-01-07T18:15:01.919Z,6.50
2018-01-07T18:51:42.798Z,6.40
2018-01-07T18:54:11.420Z,6.40
2018-01-07T18:56:39.830Z,6.40
2018-01-07T19:45:08.863Z,6.30
2018-01-07T19:47:36.856Z,6.30
2018-01-07T19:50:05.133Z,6.30
2018-01-07T20:09:48.696Z,6.10
2018-01-07T20:12:16.328Z,6.20
2018-01-07T20:14:45.350Z,6.10
2018-01-07T20:17:13.303Z,6.10
2018-01-07T20:19:41.185Z,6.10
2018-01-07T20:22:08.897Z,6.10
2018-01-07T20:24:36.665Z,6.10
2018-01-07T20:27:05.563Z,6.10
2018-01-07T20:46:54.099Z,6.00
2018-01-07T20:49:21.737Z,6.10
2018-01-07T20:54:25.263Z,6.00
2018-01-07T20:56:54.095Z,6.00
2018-01-07T20:59:22.358Z,6.00
2018-01-07T21:01:58.392Z,6.00
2018-01-07T21:04:36.033Z,6.00
2018-01-07T21:07:07.685Z,6.00
2018-01-07T21:09:37.220Z,6.00
2018-01-07T21:12:05.363Z,6.00
2018-01-07T21:14:33.011Z,6.00
2018-01-07T21:17:00.666Z,6.00
2018-01-07T21:19:28.312Z,5.90
2018-01-07T21:21:55.976Z,5.90
2018-01-07T21:24:28.683Z,5.90
2018-01-07T21:44:13.536Z,6.00
2018-01-07T21:46:41.268Z,5.80
2018-01-07T21:49:08.921Z,5.80
2018-01-07T21:51:36.585Z,5.70
2018-01-07T21:54:04.249Z,5.80
2018-01-07T22:13:48.026Z,5.50
2018-01-07T22:16:15.714Z,5.50
2018-01-07T22:18:43.339Z,5.40
2018-01-07T22:21:11.009Z,5.40
2018-01-07T22:23:38.669Z,5.40
2018-01-07T22:26:06.366Z,5.40
2018-01-07T22:28:33.980Z,5.40
2018-01-07T22:31:01.617Z,5.40
2018-01-07T22:33:29.961Z,5.50
2018-01-07T22:35:57.595Z,5.50
2018-01-07T22:38:26.181Z,5.50
2018-01-07T22:40:55.841Z,5.50
2018-01-07T22:43:23.443Z,5.40
2018-01-07T22:45:51.139Z,5.40
2018-01-07T22:48:18.919Z,5.40
2018-01-07T22:50:46.506Z,5.50
2018-01-07T22:53:14.192Z,5.50
2018-01-07T22:55:43.069Z,5.60
2018-01-07T22:58:10.710Z,5.50
2018-01-07T23:00:39.277Z,5.40
2018-01-07T23:20:38.525Z,5.30
2018-01-07T23:23:06.825Z,5.40
2018-01-07T23:25:34.558Z,5.40
2018-01-07T23:28:04.198Z,5.30
2018-01-07T23:30:31.832Z,5.30
2018-01-07T23:33:02.236Z,5.30
2018-01-07T23:35:30.218Z,5.30
2018-01-07T23:37:58.064Z,5.20
2018-01-07T23:40:25.914Z,5.20
2018-01-07T23:42:53.729Z,5.20
2018-01-07T23:45:21.586Z,5.10
2018-01-07T23:47:49.324Z,5.20
2018-01-07T23:50:17.077Z,5.30
2018-01-07T23:52:44.665Z,5.30
2018-01-07T23:55:12.439Z,5.30
2018-01-07T23:57:41.137Z,5.30
